sensor_id;sensor_type;location;lat;lon;timestamp;P1;durP1;ratioP1;P2;durP2;ratioP2
11531;SDS011;5822;51.000;5.874;2023-02-04T00:01:46;18.33;;;16.83;;
11531;SDS011;5822;51.000;5.874;2023-02-04T00:04:12;18.33;;;16.88;;
11531;SDS011;5822;51.000;5.874;2023-02-04T00:06:37;18.73;;;17.23;;
11531;SDS011;5822;51.000;5.874;2023-02-04T00:09:03;18.88;;;17.42;;
11531;SDS011;5822;51.000;5.874;2023-02-04T00:11:29;18.73;;;17.33;;
11531;SDS011;5822;51.000;5.874;2023-02-04T00:13:55;18.80;;;17.40;;
11531;SDS011;5822;51.000;5.874;2023-02-04T00:16:20;19.75;;;18.25;;
11531;SDS011;5822;51.000;5.874;2023-02-04T00:18:46;19.83;;;18.30;;
11531;SDS011;5822;51.000;5.874;2023-02-04T00:21:12;19.70;;;18.20;;
11531;SDS011;5822;51.000;5.874;2023-02-04T00:23:37;18.13;;;16.63;;
11531;SDS011;5822;51.000;5.874;2023-02-04T00:26:03;18.63;;;17.23;;
11531;SDS011;5822;51.000;5.874;2023-02-04T00:28:29;19.30;;;17.80;;
11531;SDS011;5822;51.000;5.874;2023-02-04T00:30:55;18.53;;;17.17;;
11531;SDS011;5822;51.000;5.874;2023-02-04T00:33:20;18.27;;;17.03;;
11531;SDS011;5822;51.000;5.874;2023-02-04T00:35:46;19.30;;;17.90;;
11531;SDS011;5822;51.000;5.874;2023-02-04T00:38:11;19.60;;;18.10;;
11531;SDS011;5822;51.000;5.874;2023-02-04T00:40:37;19.30;;;17.80;;
11531;SDS011;5822;51.000;5.874;2023-02-04T00:43:04;18.58;;;17.08;;
11531;SDS011;5822;51.000;5.874;2023-02-04T00:45:29;18.40;;;17.00;;
11531;SDS011;5822;51.000;5.874;2023-02-04T00:47:55;18.47;;;16.97;;
11531;SDS011;5822;51.000;5.874;2023-02-04T00:50:21;17.77;;;16.43;;
11531;SDS011;5822;51.000;5.874;2023-02-04T00:52:47;18.17;;;16.67;;
11531;SDS011;5822;51.000;5.874;2023-02-04T00:55:16;18.30;;;16.92;;
11531;SDS011;5822;51.000;5.874;2023-02-04T00:57:42;20.40;;;18.90;;
11531;SDS011;5822;51.000;5.874;2023-02-04T01:00:11;20.48;;;19.00;;
11531;SDS011;5822;51.000;5.874;2023-02-04T01:02:37;19.30;;;17.90;;
11531;SDS011;5822;51.000;5.874;2023-02-04T01:05:04;17.70;;;16.50;;
11531;SDS011;5822;51.000;5.874;2023-02-04T01:07:31;17.75;;;16.50;;
11531;SDS011;5822;51.000;5.874;2023-02-04T01:09:56;17.63;;;16.40;;
11531;SDS011;5822;51.000;5.874;2023-02-04T01:12:22;18.37;;;17.07;;
11531;SDS011;5822;51.000;5.874;2023-02-04T01:14:49;18.60;;;17.30;;
11531;SDS011;5822;51.000;5.874;2023-02-04T01:17:15;18.27;;;16.97;;
11531;SDS011;5822;51.000;5.874;2023-02-04T01:19:42;17.88;;;16.67;;
11531;SDS011;5822;51.000;5.874;2023-02-04T01:22:08;19.10;;;17.70;;
11531;SDS011;5822;51.000;5.874;2023-02-04T01:24:33;17.70;;;16.40;;
11531;SDS011;5822;51.000;5.874;2023-02-04T01:26:59;17.67;;;16.27;;
11531;SDS011;5822;51.000;5.874;2023-02-04T01:29:24;17.90;;;16.60;;
11531;SDS011;5822;51.000;5.874;2023-02-04T01:31:50;17.20;;;15.90;;
11531;SDS011;5822;51.000;5.874;2023-02-04T01:34:15;17.27;;;15.98;;
11531;SDS011;5822;51.000;5.874;2023-02-04T01:36:41;17.90;;;16.60;;
11531;SDS011;5822;51.000;5.874;2023-02-04T01:39:07;17.08;;;15.88;;
11531;SDS011;5822;51.000;5.874;2023-02-04T01:41:32;17.20;;;16.00;;
11531;SDS011;5822;51.000;5.874;2023-02-04T01:43:58;17.30;;;16.00;;
11531;SDS011;5822;51.000;5.874;2023-02-04T01:46:24;16.60;;;15.50;;
11531;SDS011;5822;51.000;5.874;2023-02-04T01:48:49;16.17;;;15.07;;
11531;SDS011;5822;51.000;5.874;2023-02-04T01:51:16;16.30;;;15.20;;
11531;SDS011;5822;51.000;5.874;2023-02-04T01:53:50;16.27;;;15.18;;
11531;SDS011;5822;51.000;5.874;2023-02-04T01:56:17;16.60;;;15.50;;
11531;SDS011;5822;51.000;5.874;2023-02-04T01:58:45;16.20;;;15.20;;
11531;SDS011;5822;51.000;5.874;2023-02-04T02:01:12;16.33;;;15.23;;
11531;SDS011;5822;51.000;5.874;2023-02-04T02:03:40;16.30;;;15.20;;
11531;SDS011;5822;51.000;5.874;2023-02-04T02:06:06;15.95;;;14.88;;
11531;SDS011;5822;51.000;5.874;2023-02-04T02:08:34;16.00;;;15.00;;
11531;SDS011;5822;51.000;5.874;2023-02-04T02:11:00;16.20;;;15.10;;
11531;SDS011;5822;51.000;5.874;2023-02-04T02:13:27;16.05;;;14.95;;
11531;SDS011;5822;51.000;5.874;2023-02-04T02:15:52;16.10;;;15.10;;
11531;SDS011;5822;51.000;5.874;2023-02-04T02:18:18;16.55;;;15.45;;
11531;SDS011;5822;51.000;5.874;2023-02-04T02:20:44;17.05;;;15.82;;
11531;SDS011;5822;51.000;5.874;2023-02-04T02:26:05;17.50;;;16.20;;
11531;SDS011;5822;51.000;5.874;2023-02-04T02:28:31;17.13;;;15.93;;
11531;SDS011;5822;51.000;5.874;2023-02-04T02:30:56;17.00;;;15.90;;
11531;SDS011;5822;51.000;5.874;2023-02-04T02:33:22;16.40;;;15.30;;
11531;SDS011;5822;51.000;5.874;2023-02-04T02:35:49;16.20;;;15.10;;
11531;SDS011;5822;51.000;5.874;2023-02-04T02:38:15;16.00;;;15.00;;
11531;SDS011;5822;51.000;5.874;2023-02-04T02:40:42;16.50;;;15.40;;
11531;SDS011;5822;51.000;5.874;2023-02-04T02:43:09;16.65;;;15.55;;
11531;SDS011;5822;51.000;5.874;2023-02-04T02:45:43;16.27;;;15.18;;
11531;SDS011;5822;51.000;5.874;2023-02-04T02:48:09;16.33;;;15.33;;
11531;SDS011;5822;51.000;5.874;2023-02-04T02:50:35;15.88;;;14.88;;
11531;SDS011;5822;51.000;5.874;2023-02-04T02:53:02;16.00;;;15.00;;
11531;SDS011;5822;51.000;5.874;2023-02-04T02:55:28;16.15;;;15.15;;
11531;SDS011;5822;51.000;5.874;2023-02-04T02:57:55;15.48;;;14.48;;
11531;SDS011;5822;51.000;5.874;2023-02-04T03:00:22;15.40;;;14.50;;
11531;SDS011;5822;51.000;5.874;2023-02-04T03:03:00;15.80;;;14.80;;
11531;SDS011;5822;51.000;5.874;2023-02-04T03:05:37;15.55;;;14.55;;
11531;SDS011;5822;51.000;5.874;2023-02-04T03:08:06;15.70;;;14.80;;
11531;SDS011;5822;51.000;5.874;2023-02-04T03:10:34;16.00;;;15.00;;
11531;SDS011;5822;51.000;5.874;2023-02-04T03:13:00;15.85;;;14.85;;
11531;SDS011;5822;51.000;5.874;2023-02-04T03:15:27;15.80;;;14.77;;
11531;SDS011;5822;51.000;5.874;2023-02-04T03:17:53;16.00;;;14.90;;
11531;SDS011;5822;51.000;5.874;2023-02-04T03:20:21;15.80;;;14.80;;
11531;SDS011;5822;51.000;5.874;2023-02-04T03:22:49;16.20;;;15.10;;
11531;SDS011;5822;51.000;5.874;2023-02-04T03:25:15;16.63;;;15.57;;
11531;SDS011;5822;51.000;5.874;2023-02-04T03:27:41;16.15;;;15.13;;
11531;SDS011;5822;51.000;5.874;2023-02-04T03:30:07;17.05;;;15.85;;
11531;SDS011;5822;51.000;5.874;2023-02-04T03:32:33;16.52;;;15.43;;
11531;SDS011;5822;51.000;5.874;2023-02-04T03:34:59;16.80;;;15.60;;
11531;SDS011;5822;51.000;5.874;2023-02-04T03:37:25;16.10;;;15.00;;
11531;SDS011;5822;51.000;5.874;2023-02-04T03:39:50;16.25;;;15.15;;
11531;SDS011;5822;51.000;5.874;2023-02-04T03:42:16;16.30;;;15.18;;
11531;SDS011;5822;51.000;5.874;2023-02-04T03:44:42;17.00;;;15.90;;
11531;SDS011;5822;51.000;5.874;2023-02-04T03:47:08;16.85;;;15.65;;
11531;SDS011;5822;51.000;5.874;2023-02-04T03:49:33;17.10;;;15.90;;
11531;SDS011;5822;51.000;5.874;2023-02-04T03:52:00;17.48;;;16.17;;
11531;SDS011;5822;51.000;5.874;2023-02-04T03:54:26;16.35;;;15.25;;
11531;SDS011;5822;51.000;5.874;2023-02-04T03:56:52;16.50;;;15.40;;
11531;SDS011;5822;51.000;5.874;2023-02-04T03:59:17;16.57;;;15.37;;
11531;SDS011;5822;51.000;5.874;2023-02-04T04:01:43;16.10;;;15.00;;
11531;SDS011;5822;51.000;5.874;2023-02-04T04:04:09;16.88;;;15.77;;
11531;SDS011;5822;51.000;5.874;2023-02-04T04:06:34;17.00;;;15.80;;
11531;SDS011;5822;51.000;5.874;2023-02-04T04:09:00;16.80;;;15.60;;
11531;SDS011;5822;51.000;5.874;2023-02-04T04:11:26;17.17;;;15.90;;
11531;SDS011;5822;51.000;5.874;2023-02-04T04:13:51;17.00;;;15.70;;
11531;SDS011;5822;51.000;5.874;2023-02-04T04:16:17;16.53;;;15.43;;
11531;SDS011;5822;51.000;5.874;2023-02-04T04:18:44;15.98;;;14.98;;
11531;SDS011;5822;51.000;5.874;2023-02-04T04:21:10;16.35;;;15.25;;
11531;SDS011;5822;51.000;5.874;2023-02-04T04:23:36;16.42;;;15.32;;
11531;SDS011;5822;51.000;5.874;2023-02-04T04:26:02;16.75;;;15.65;;
11531;SDS011;5822;51.000;5.874;2023-02-04T04:28:27;16.70;;;15.50;;
11531;SDS011;5822;51.000;5.874;2023-02-04T04:30:53;16.60;;;15.50;;
11531;SDS011;5822;51.000;5.874;2023-02-04T04:33:19;16.43;;;15.33;;
11531;SDS011;5822;51.000;5.874;2023-02-04T04:35:44;16.00;;;14.90;;
11531;SDS011;5822;51.000;5.874;2023-02-04T04:38:10;15.90;;;14.90;;
11531;SDS011;5822;51.000;5.874;2023-02-04T04:40:36;16.27;;;15.17;;
11531;SDS011;5822;51.000;5.874;2023-02-04T04:43:02;16.67;;;15.57;;
11531;SDS011;5822;51.000;5.874;2023-02-04T04:45:27;16.40;;;15.40;;
11531;SDS011;5822;51.000;5.874;2023-02-04T04:47:53;16.60;;;15.50;;
11531;SDS011;5822;51.000;5.874;2023-02-04T04:50:19;16.77;;;15.57;;
11531;SDS011;5822;51.000;5.874;2023-02-04T04:52:44;16.92;;;15.75;;
11531;SDS011;5822;51.000;5.874;2023-02-04T04:55:10;16.80;;;15.60;;
11531;SDS011;5822;51.000;5.874;2023-02-04T04:57:36;16.60;;;15.40;;
11531;SDS011;5822;51.000;5.874;2023-02-04T05:00:02;16.85;;;15.65;;
11531;SDS011;5822;51.000;5.874;2023-02-04T05:02:29;16.93;;;15.73;;
11531;SDS011;5822;51.000;5.874;2023-02-04T05:04:55;17.37;;;16.17;;
11531;SDS011;5822;51.000;5.874;2023-02-04T05:07:20;17.30;;;16.10;;
11531;SDS011;5822;51.000;5.874;2023-02-04T05:09:46;17.93;;;16.60;;
11531;SDS011;5822;51.000;5.874;2023-02-04T05:12:11;17.93;;;16.60;;
11531;SDS011;5822;51.000;5.874;2023-02-04T05:14:37;17.27;;;16.05;;
11531;SDS011;5822;51.000;5.874;2023-02-04T05:17:02;17.20;;;16.00;;
11531;SDS011;5822;51.000;5.874;2023-02-04T05:19:28;17.13;;;15.93;;
11531;SDS011;5822;51.000;5.874;2023-02-04T05:21:54;17.92;;;16.58;;
11531;SDS011;5822;51.000;5.874;2023-02-04T05:24:21;18.15;;;16.85;;
11531;SDS011;5822;51.000;5.874;2023-02-04T05:26:47;17.77;;;16.57;;
11531;SDS011;5822;51.000;5.874;2023-02-04T05:29:12;18.07;;;16.77;;
11531;SDS011;5822;51.000;5.874;2023-02-04T05:31:38;18.20;;;16.90;;
11531;SDS011;5822;51.000;5.874;2023-02-04T05:34:03;17.73;;;16.43;;
11531;SDS011;5822;51.000;5.874;2023-02-04T05:36:31;17.70;;;16.40;;
11531;SDS011;5822;51.000;5.874;2023-02-04T05:38:57;17.52;;;16.33;;
11531;SDS011;5822;51.000;5.874;2023-02-04T05:41:22;18.73;;;17.30;;
11531;SDS011;5822;51.000;5.874;2023-02-04T05:43:48;20.02;;;18.42;;
11531;SDS011;5822;51.000;5.874;2023-02-04T05:46:13;19.23;;;17.73;;
11531;SDS011;5822;51.000;5.874;2023-02-04T05:48:39;19.00;;;17.60;;
11531;SDS011;5822;51.000;5.874;2023-02-04T05:51:05;18.92;;;17.50;;
11531;SDS011;5822;51.000;5.874;2023-02-04T05:53:30;18.50;;;17.20;;
11531;SDS011;5822;51.000;5.874;2023-02-04T05:55:56;17.70;;;16.40;;
11531;SDS011;5822;51.000;5.874;2023-02-04T05:58:22;18.05;;;16.75;;
11531;SDS011;5822;51.000;5.874;2023-02-04T06:00:47;17.97;;;16.77;;
11531;SDS011;5822;51.000;5.874;2023-02-04T06:03:13;18.30;;;16.97;;
11531;SDS011;5822;51.000;5.874;2023-02-04T06:05:39;18.70;;;17.40;;
11531;SDS011;5822;51.000;5.874;2023-02-04T06:08:04;18.48;;;17.17;;
11531;SDS011;5822;51.000;5.874;2023-02-04T06:10:30;18.73;;;17.33;;
11531;SDS011;5822;51.000;5.874;2023-02-04T06:12:56;18.60;;;17.30;;
11531;SDS011;5822;51.000;5.874;2023-02-04T06:15:21;17.87;;;16.57;;
11531;SDS011;5822;51.000;5.874;2023-02-04T06:17:47;18.20;;;16.90;;
11531;SDS011;5822;51.000;5.874;2023-02-04T06:20:13;18.10;;;16.80;;
11531;SDS011;5822;51.000;5.874;2023-02-04T06:22:39;18.00;;;16.67;;
11531;SDS011;5822;51.000;5.874;2023-02-04T06:25:05;18.75;;;17.38;;
11531;SDS011;5822;51.000;5.874;2023-02-04T06:27:31;18.10;;;16.90;;
11531;SDS011;5822;51.000;5.874;2023-02-04T06:29:56;18.63;;;17.23;;
11531;SDS011;5822;51.000;5.874;2023-02-04T06:32:22;18.70;;;17.40;;
11531;SDS011;5822;51.000;5.874;2023-02-04T06:34:48;18.97;;;17.57;;
11531;SDS011;5822;51.000;5.874;2023-02-04T06:37:13;18.42;;;17.13;;
11531;SDS011;5822;51.000;5.874;2023-02-04T06:39:41;18.70;;;17.30;;
11531;SDS011;5822;51.000;5.874;2023-02-04T06:42:07;18.50;;;17.10;;
11531;SDS011;5822;51.000;5.874;2023-02-04T06:44:33;19.10;;;17.70;;
11531;SDS011;5822;51.000;5.874;2023-02-04T06:46:58;19.03;;;17.60;;
11531;SDS011;5822;51.000;5.874;2023-02-04T06:49:24;19.35;;;17.88;;
11531;SDS011;5822;51.000;5.874;2023-02-04T06:51:50;19.20;;;17.80;;
11531;SDS011;5822;51.000;5.874;2023-02-04T06:54:16;19.70;;;18.20;;
11531;SDS011;5822;51.000;5.874;2023-02-04T06:56:42;18.83;;;17.42;;
11531;SDS011;5822;51.000;5.874;2023-02-04T06:59:08;18.85;;;17.45;;
11531;SDS011;5822;51.000;5.874;2023-02-04T07:01:34;18.33;;;17.02;;
11531;SDS011;5822;51.000;5.874;2023-02-04T07:04:00;18.50;;;17.20;;
11531;SDS011;5822;51.000;5.874;2023-02-04T07:06:27;18.15;;;16.85;;
11531;SDS011;5822;51.000;5.874;2023-02-04T07:08:52;18.88;;;17.48;;
11531;SDS011;5822;51.000;5.874;2023-02-04T07:11:18;19.10;;;17.70;;
11531;SDS011;5822;51.000;5.874;2023-02-04T07:13:43;19.60;;;18.20;;
11531;SDS011;5822;51.000;5.874;2023-02-04T07:16:09;18.70;;;17.40;;
11531;SDS011;5822;51.000;5.874;2023-02-04T07:18:35;19.10;;;17.70;;
11531;SDS011;5822;51.000;5.874;2023-02-04T07:21:00;19.20;;;17.80;;
11531;SDS011;5822;51.000;5.874;2023-02-04T07:23:26;18.48;;;17.17;;
11531;SDS011;5822;51.000;5.874;2023-02-04T07:25:52;19.10;;;17.65;;
11531;SDS011;5822;51.000;5.874;2023-02-04T07:28:19;19.15;;;17.75;;
11531;SDS011;5822;51.000;5.874;2023-02-04T07:30:45;19.35;;;17.88;;
11531;SDS011;5822;51.000;5.874;2023-02-04T07:33:11;19.13;;;17.73;;
11531;SDS011;5822;51.000;5.874;2023-02-04T07:35:37;19.20;;;17.73;;
11531;SDS011;5822;51.000;5.874;2023-02-04T07:38:03;18.80;;;17.42;;
11531;SDS011;5822;51.000;5.874;2023-02-04T07:40:29;18.75;;;17.35;;
11531;SDS011;5822;51.000;5.874;2023-02-04T07:42:54;19.00;;;17.53;;
11531;SDS011;5822;51.000;5.874;2023-02-04T07:45:20;19.27;;;17.87;;
11531;SDS011;5822;51.000;5.874;2023-02-04T07:47:46;18.83;;;17.43;;
11531;SDS011;5822;51.000;5.874;2023-02-04T07:50:11;19.13;;;17.70;;
11531;SDS011;5822;51.000;5.874;2023-02-04T07:52:37;19.40;;;17.97;;
11531;SDS011;5822;51.000;5.874;2023-02-04T07:55:03;20.60;;;19.00;;
11531;SDS011;5822;51.000;5.874;2023-02-04T07:57:29;19.90;;;18.40;;
11531;SDS011;5822;51.000;5.874;2023-02-04T07:59:55;19.90;;;18.40;;
11531;SDS011;5822;51.000;5.874;2023-02-04T08:02:21;19.43;;;18.03;;
11531;SDS011;5822;51.000;5.874;2023-02-04T08:04:46;19.63;;;18.23;;
11531;SDS011;5822;51.000;5.874;2023-02-04T08:07:12;21.60;;;20.00;;
11531;SDS011;5822;51.000;5.874;2023-02-04T08:09:38;29.50;;;27.70;;
11531;SDS011;5822;51.000;5.874;2023-02-04T08:12:03;41.53;;;39.23;;
11531;SDS011;5822;51.000;5.874;2023-02-04T08:14:29;47.50;;;45.07;;
11531;SDS011;5822;51.000;5.874;2023-02-04T08:16:55;45.97;;;43.47;;
11531;SDS011;5822;51.000;5.874;2023-02-04T08:19:21;33.55;;;31.60;;
11531;SDS011;5822;51.000;5.874;2023-02-04T08:21:47;34.45;;;32.55;;
11531;SDS011;5822;51.000;5.874;2023-02-04T08:24:13;30.60;;;28.80;;
11531;SDS011;5822;51.000;5.874;2023-02-04T08:26:40;33.07;;;30.97;;
11531;SDS011;5822;51.000;5.874;2023-02-04T08:29:06;33.50;;;31.60;;
11531;SDS011;5822;51.000;5.874;2023-02-04T08:31:33;29.77;;;27.98;;
11531;SDS011;5822;51.000;5.874;2023-02-04T08:33:58;29.73;;;27.87;;
11531;SDS011;5822;51.000;5.874;2023-02-04T08:36:24;29.77;;;27.90;;
11531;SDS011;5822;51.000;5.874;2023-02-04T08:38:50;32.70;;;30.80;;
11531;SDS011;5822;51.000;5.874;2023-02-04T08:41:15;29.67;;;27.90;;
11531;SDS011;5822;51.000;5.874;2023-02-04T08:43:41;29.83;;;28.03;;
11531;SDS011;5822;51.000;5.874;2023-02-04T08:46:06;32.85;;;31.02;;
11531;SDS011;5822;51.000;5.874;2023-02-04T08:48:32;27.85;;;26.20;;
11531;SDS011;5822;51.000;5.874;2023-02-04T08:50:58;21.10;;;19.70;;
11531;SDS011;5822;51.000;5.874;2023-02-04T08:53:24;20.88;;;19.48;;
11531;SDS011;5822;51.000;5.874;2023-02-04T08:55:49;21.67;;;20.15;;
11531;SDS011;5822;51.000;5.874;2023-02-04T08:58:15;20.73;;;19.33;;
11531;SDS011;5822;51.000;5.874;2023-02-04T09:00:40;27.35;;;25.75;;
11531;SDS011;5822;51.000;5.874;2023-02-04T09:03:06;34.35;;;32.55;;
11531;SDS011;5822;51.000;5.874;2023-02-04T09:05:32;28.10;;;26.40;;
11531;SDS011;5822;51.000;5.874;2023-02-04T09:07:57;25.42;;;23.92;;
11531;SDS011;5822;51.000;5.874;2023-02-04T09:10:23;25.17;;;23.67;;
11531;SDS011;5822;51.000;5.874;2023-02-04T09:12:49;28.65;;;26.83;;
11531;SDS011;5822;51.000;5.874;2023-02-04T09:15:20;26.60;;;24.95;;
11531;SDS011;5822;51.000;5.874;2023-02-04T09:17:47;25.52;;;24.05;;
11531;SDS011;5822;51.000;5.874;2023-02-04T09:20:13;25.95;;;24.27;;
11531;SDS011;5822;51.000;5.874;2023-02-04T09:22:38;27.07;;;25.47;;
11531;SDS011;5822;51.000;5.874;2023-02-04T09:25:04;25.43;;;23.93;;
11531;SDS011;5822;51.000;5.874;2023-02-04T09:27:30;26.67;;;25.08;;
11531;SDS011;5822;51.000;5.874;2023-02-04T09:29:55;26.77;;;25.10;;
11531;SDS011;5822;51.000;5.874;2023-02-04T09:32:21;28.30;;;26.63;;
11531;SDS011;5822;51.000;5.874;2023-02-04T09:34:47;27.25;;;25.55;;
11531;SDS011;5822;51.000;5.874;2023-02-04T09:37:13;27.23;;;25.53;;
11531;SDS011;5822;51.000;5.874;2023-02-04T09:39:39;26.33;;;24.73;;
11531;SDS011;5822;51.000;5.874;2023-02-04T09:42:04;27.57;;;25.97;;
11531;SDS011;5822;51.000;5.874;2023-02-04T09:44:31;26.92;;;25.33;;
11531;SDS011;5822;51.000;5.874;2023-02-04T09:46:57;27.38;;;25.77;;
11531;SDS011;5822;51.000;5.874;2023-02-04T09:49:24;26.25;;;24.65;;
11531;SDS011;5822;51.000;5.874;2023-02-04T09:51:51;26.38;;;24.77;;
11531;SDS011;5822;51.000;5.874;2023-02-04T09:54:18;20.05;;;18.65;;
11531;SDS011;5822;51.000;5.874;2023-02-04T09:56:46;19.75;;;18.40;;
11531;SDS011;5822;51.000;5.874;2023-02-04T09:59:13;23.63;;;22.02;;
11531;SDS011;5822;51.000;5.874;2023-02-04T10:01:41;23.13;;;21.73;;
11531;SDS011;5822;51.000;5.874;2023-02-04T10:04:08;31.77;;;30.00;;
11531;SDS011;5822;51.000;5.874;2023-02-04T10:06:37;34.97;;;33.08;;
11531;SDS011;5822;51.000;5.874;2023-02-04T10:09:04;26.42;;;24.90;;
11531;SDS011;5822;51.000;5.874;2023-02-04T10:11:30;27.52;;;25.92;;
11531;SDS011;5822;51.000;5.874;2023-02-04T10:14:00;29.20;;;27.27;;
11531;SDS011;5822;51.000;5.874;2023-02-04T10:16:27;27.80;;;26.13;;
11531;SDS011;5822;51.000;5.874;2023-02-04T10:18:59;28.10;;;26.38;;
11531;SDS011;5822;51.000;5.874;2023-02-04T10:21:28;27.52;;;25.92;;
11531;SDS011;5822;51.000;5.874;2023-02-04T10:23:57;28.05;;;26.35;;
11531;SDS011;5822;51.000;5.874;2023-02-04T10:26:26;27.02;;;25.42;;
11531;SDS011;5822;51.000;5.874;2023-02-04T10:28:57;27.60;;;25.90;;
11531;SDS011;5822;51.000;5.874;2023-02-04T10:34:13;27.80;;;26.00;;
11531;SDS011;5822;51.000;5.874;2023-02-04T10:36:45;28.40;;;26.48;;
11531;SDS011;5822;51.000;5.874;2023-02-04T10:39:21;28.42;;;26.63;;
11531;SDS011;5822;51.000;5.874;2023-02-04T10:41:58;27.92;;;26.23;;
11531;SDS011;5822;51.000;5.874;2023-02-04T10:44:31;28.05;;;26.15;;
11531;SDS011;5822;51.000;5.874;2023-02-04T10:47:00;28.27;;;26.38;;
11531;SDS011;5822;51.000;5.874;2023-02-04T10:49:27;28.20;;;26.42;;
11531;SDS011;5822;51.000;5.874;2023-02-04T10:51:53;28.05;;;26.35;;
11531;SDS011;5822;51.000;5.874;2023-02-04T10:54:19;27.13;;;25.53;;
11531;SDS011;5822;51.000;5.874;2023-02-04T10:56:55;24.42;;;22.83;;
11531;SDS011;5822;51.000;5.874;2023-02-04T10:59:31;24.95;;;23.35;;
11531;SDS011;5822;51.000;5.874;2023-02-04T11:01:57;26.48;;;24.67;;
11531;SDS011;5822;51.000;5.874;2023-02-04T11:04:26;27.40;;;25.27;;
11531;SDS011;5822;51.000;5.874;2023-02-04T11:06:52;27.05;;;25.25;;
11531;SDS011;5822;51.000;5.874;2023-02-04T11:09:19;28.45;;;26.75;;
11531;SDS011;5822;51.000;5.874;2023-02-04T11:11:46;33.53;;;31.63;;
11531;SDS011;5822;51.000;5.874;2023-02-04T11:14:24;33.72;;;31.83;;
11531;SDS011;5822;51.000;5.874;2023-02-04T11:16:52;31.73;;;29.92;;
11531;SDS011;5822;51.000;5.874;2023-02-04T11:19:30;21.25;;;19.75;;
11531;SDS011;5822;51.000;5.874;2023-02-04T11:22:05;20.70;;;19.30;;
11531;SDS011;5822;51.000;5.874;2023-02-04T11:24:50;21.65;;;20.15;;
11531;SDS011;5822;51.000;5.874;2023-02-04T11:27:20;24.38;;;22.77;;
11531;SDS011;5822;51.000;5.874;2023-02-04T11:29:49;30.55;;;28.65;;
11531;SDS011;5822;51.000;5.874;2023-02-04T11:32:29;27.73;;;25.92;;
11531;SDS011;5822;51.000;5.874;2023-02-04T11:37:40;27.50;;;25.70;;
11531;SDS011;5822;51.000;5.874;2023-02-04T11:40:21;29.17;;;27.07;;
11531;SDS011;5822;51.000;5.874;2023-02-04T11:42:54;28.17;;;26.17;;
11531;SDS011;5822;51.000;5.874;2023-02-04T11:45:40;27.25;;;25.35;;
11531;SDS011;5822;51.000;5.874;2023-02-04T11:48:13;27.27;;;25.58;;
11531;SDS011;5822;51.000;5.874;2023-02-04T11:50:41;30.08;;;28.00;;
11531;SDS011;5822;51.000;5.874;2023-02-04T11:53:09;27.70;;;25.90;;
11531;SDS011;5822;51.000;5.874;2023-02-04T11:55:42;24.30;;;22.70;;
11531;SDS011;5822;51.000;5.874;2023-02-04T11:58:13;22.77;;;21.23;;
11531;SDS011;5822;51.000;5.874;2023-02-04T12:00:40;23.75;;;21.80;;
11531;SDS011;5822;51.000;5.874;2023-02-04T12:03:20;23.13;;;21.33;;
11531;SDS011;5822;51.000;5.874;2023-02-04T12:05:58;21.45;;;19.85;;
11531;SDS011;5822;51.000;5.874;2023-02-04T12:11:02;22.65;;;20.85;;
11531;SDS011;5822;51.000;5.874;2023-02-04T12:13:31;21.08;;;19.48;;
11531;SDS011;5822;51.000;5.874;2023-02-04T12:16:02;22.30;;;20.40;;
11531;SDS011;5822;51.000;5.874;2023-02-04T12:18:30;21.50;;;19.80;;
11531;SDS011;5822;51.000;5.874;2023-02-04T12:20:57;22.02;;;20.42;;
11531;SDS011;5822;51.000;5.874;2023-02-04T12:23:24;21.97;;;20.37;;
11531;SDS011;5822;51.000;5.874;2023-02-04T12:25:51;22.30;;;20.50;;
11531;SDS011;5822;51.000;5.874;2023-02-04T12:28:17;22.60;;;20.83;;
11531;SDS011;5822;51.000;5.874;2023-02-04T12:30:43;22.17;;;20.58;;
11531;SDS011;5822;51.000;5.874;2023-02-04T12:33:09;21.92;;;20.30;;
11531;SDS011;5822;51.000;5.874;2023-02-04T12:35:35;22.70;;;20.90;;
11531;SDS011;5822;51.000;5.874;2023-02-04T12:38:01;21.98;;;20.20;;
11531;SDS011;5822;51.000;5.874;2023-02-04T12:40:27;19.90;;;18.40;;
11531;SDS011;5822;51.000;5.874;2023-02-04T12:42:53;20.50;;;18.90;;
11531;SDS011;5822;51.000;5.874;2023-02-04T12:45:19;20.50;;;18.90;;
11531;SDS011;5822;51.000;5.874;2023-02-04T12:47:44;20.27;;;18.60;;
11531;SDS011;5822;51.000;5.874;2023-02-04T12:50:11;20.00;;;18.40;;
11531;SDS011;5822;51.000;5.874;2023-02-04T12:52:38;19.17;;;17.77;;
11531;SDS011;5822;51.000;5.874;2023-02-04T12:55:04;19.70;;;18.20;;
11531;SDS011;5822;51.000;5.874;2023-02-04T12:57:32;19.70;;;18.20;;
11531;SDS011;5822;51.000;5.874;2023-02-04T12:59:58;19.83;;;18.27;;
11531;SDS011;5822;51.000;5.874;2023-02-04T13:02:25;20.88;;;19.08;;
11531;SDS011;5822;51.000;5.874;2023-02-04T13:04:54;20.77;;;19.08;;
11531;SDS011;5822;51.000;5.874;2023-02-04T13:07:20;20.02;;;18.52;;
11531;SDS011;5822;51.000;5.874;2023-02-04T13:09:46;26.02;;;24.10;;
11531;SDS011;5822;51.000;5.874;2023-02-04T13:12:12;24.55;;;22.85;;
11531;SDS011;5822;51.000;5.874;2023-02-04T13:14:39;20.75;;;19.25;;
11531;SDS011;5822;51.000;5.874;2023-02-04T13:17:05;20.17;;;18.77;;
11531;SDS011;5822;51.000;5.874;2023-02-04T13:19:31;21.23;;;19.83;;
11531;SDS011;5822;51.000;5.874;2023-02-04T13:21:57;20.90;;;19.40;;
11531;SDS011;5822;51.000;5.874;2023-02-04T13:24:23;19.80;;;18.30;;
11531;SDS011;5822;51.000;5.874;2023-02-04T13:26:49;19.50;;;18.13;;
11531;SDS011;5822;51.000;5.874;2023-02-04T13:29:15;18.35;;;17.15;;
11531;SDS011;5822;51.000;5.874;2023-02-04T13:31:40;19.50;;;18.10;;
11531;SDS011;5822;51.000;5.874;2023-02-04T13:34:06;18.80;;;17.50;;
11531;SDS011;5822;51.000;5.874;2023-02-04T13:36:32;18.83;;;17.52;;
11531;SDS011;5822;51.000;5.874;2023-02-04T13:38:57;18.15;;;16.85;;
11531;SDS011;5822;51.000;5.874;2023-02-04T13:41:24;18.23;;;17.08;;
11531;SDS011;5822;51.000;5.874;2023-02-04T13:43:53;17.30;;;16.13;;
11531;SDS011;5822;51.000;5.874;2023-02-04T13:46:19;17.83;;;16.63;;
11531;SDS011;5822;51.000;5.874;2023-02-04T13:48:45;18.40;;;17.10;;
11531;SDS011;5822;51.000;5.874;2023-02-04T13:51:11;18.17;;;16.83;;
11531;SDS011;5822;51.000;5.874;2023-02-04T13:53:37;17.48;;;16.27;;
11531;SDS011;5822;51.000;5.874;2023-02-04T13:56:03;18.03;;;16.63;;
11531;SDS011;5822;51.000;5.874;2023-02-04T13:58:29;17.83;;;16.47;;
11531;SDS011;5822;51.000;5.874;2023-02-04T14:00:55;17.40;;;16.20;;
11531;SDS011;5822;51.000;5.874;2023-02-04T14:03:24;18.33;;;16.92;;
11531;SDS011;5822;51.000;5.874;2023-02-04T14:05:51;17.58;;;16.38;;
11531;SDS011;5822;51.000;5.874;2023-02-04T14:08:17;17.80;;;16.50;;
11531;SDS011;5822;51.000;5.874;2023-02-04T14:10:43;17.90;;;16.70;;
11531;SDS011;5822;51.000;5.874;2023-02-04T14:13:09;17.60;;;16.40;;
11531;SDS011;5822;51.000;5.874;2023-02-04T14:15:35;17.83;;;16.52;;
11531;SDS011;5822;51.000;5.874;2023-02-04T14:18:02;18.42;;;17.02;;
11531;SDS011;5822;51.000;5.874;2023-02-04T14:20:28;17.23;;;16.02;;
11531;SDS011;5822;51.000;5.874;2023-02-04T14:22:55;18.30;;;17.10;;
11531;SDS011;5822;51.000;5.874;2023-02-04T14:25:21;17.73;;;16.48;;
11531;SDS011;5822;51.000;5.874;2023-02-04T14:27:47;17.57;;;16.37;;
11531;SDS011;5822;51.000;5.874;2023-02-04T14:32:45;16.77;;;15.73;;
11531;SDS011;5822;51.000;5.874;2023-02-04T14:35:11;16.65;;;15.55;;
11531;SDS011;5822;51.000;5.874;2023-02-04T14:37:40;17.02;;;15.90;;
11531;SDS011;5822;51.000;5.874;2023-02-04T14:40:06;17.50;;;16.20;;
11531;SDS011;5822;51.000;5.874;2023-02-04T14:42:33;16.85;;;15.68;;
11531;SDS011;5822;51.000;5.874;2023-02-04T14:44:59;16.70;;;15.60;;